sensor_id;sensor_type;location;lat;lon;timestamp;P1;durP1;ratioP1;P2;durP2;ratioP2
18933;SDS011;9599;53.706;10.384;2023-04-12T00:01:38;13.90;;;8.00;;
18933;SDS011;9599;53.706;10.384;2023-04-12T00:04:06;14.30;;;7.80;;
18933;SDS011;9599;53.706;10.384;2023-04-12T00:06:35;13.23;;;7.97;;
18933;SDS011;9599;53.706;10.384;2023-04-12T00:09:03;13.60;;;7.80;;
18933;SDS011;9599;53.706;10.384;2023-04-12T00:11:31;16.03;;;8.10;;
18933;SDS011;9599;53.706;10.384;2023-04-12T00:14:00;15.20;;;8.10;;
18933;SDS011;9599;53.706;10.384;2023-04-12T00:16:28;15.77;;;7.90;;
18933;SDS011;9599;53.706;10.384;2023-04-12T00:18:56;15.43;;;8.17;;
18933;SDS011;9599;53.706;10.384;2023-04-12T00:21:26;12.57;;;7.73;;
18933;SDS011;9599;53.706;10.384;2023-04-12T00:23:55;14.80;;;7.50;;
18933;SDS011;9599;53.706;10.384;2023-04-12T00:26:23;13.83;;;7.97;;
18933;SDS011;9599;53.706;10.384;2023-04-12T00:28:51;15.07;;;7.67;;
18933;SDS011;9599;53.706;10.384;2023-04-12T00:31:20;15.00;;;8.17;;
18933;SDS011;9599;53.706;10.384;2023-04-12T00:33:49;17.50;;;8.20;;
18933;SDS011;9599;53.706;10.384;2023-04-12T00:36:16;16.70;;;8.07;;
18933;SDS011;9599;53.706;10.384;2023-04-12T00:38:45;14.23;;;7.87;;
18933;SDS011;9599;53.706;10.384;2023-04-12T00:41:13;13.53;;;7.53;;
18933;SDS011;9599;53.706;10.384;2023-04-12T00:43:41;13.93;;;8.00;;
18933;SDS011;9599;53.706;10.384;2023-04-12T00:46:09;13.77;;;7.30;;
18933;SDS011;9599;53.706;10.384;2023-04-12T00:48:39;17.70;;;7.17;;
18933;SDS011;9599;53.706;10.384;2023-04-12T00:51:07;15.43;;;6.60;;
18933;SDS011;9599;53.706;10.384;2023-04-12T00:53:35;12.17;;;6.97;;
18933;SDS011;9599;53.706;10.384;2023-04-12T00:56:06;11.30;;;6.30;;
18933;SDS011;9599;53.706;10.384;2023-04-12T00:58:38;12.93;;;5.73;;
18933;SDS011;9599;53.706;10.384;2023-04-12T01:01:06;10.07;;;6.50;;
18933;SDS011;9599;53.706;10.384;2023-04-12T01:03:40;10.97;;;6.17;;
18933;SDS011;9599;53.706;10.384;2023-04-12T01:06:10;12.70;;;6.27;;
18933;SDS011;9599;53.706;10.384;2023-04-12T01:08:42;9.87;;;5.77;;
18933;SDS011;9599;53.706;10.384;2023-04-12T01:11:23;9.27;;;5.90;;
18933;SDS011;9599;53.706;10.384;2023-04-12T01:14:04;11.60;;;6.00;;
18933;SDS011;9599;53.706;10.384;2023-04-12T01:16:39;11.73;;;6.00;;
18933;SDS011;9599;53.706;10.384;2023-04-12T01:19:20;10.50;;;5.73;;
18933;SDS011;9599;53.706;10.384;2023-04-12T01:22:05;11.43;;;5.50;;
18933;SDS011;9599;53.706;10.384;2023-04-12T01:24:42;12.00;;;5.80;;
18933;SDS011;9599;53.706;10.384;2023-04-12T01:27:27;12.70;;;6.00;;
18933;SDS011;9599;53.706;10.384;2023-04-12T01:30:00;10.30;;;6.20;;
18933;SDS011;9599;53.706;10.384;2023-04-12T01:32:32;11.90;;;6.00;;
18933;SDS011;9599;53.706;10.384;2023-04-12T01:35:03;9.90;;;4.87;;
18933;SDS011;9599;53.706;10.384;2023-04-12T01:37:34;8.60;;;5.40;;
18933;SDS011;9599;53.706;10.384;2023-04-12T01:40:02;9.70;;;5.67;;
18933;SDS011;9599;53.706;10.384;2023-04-12T01:42:33;13.30;;;6.07;;
18933;SDS011;9599;53.706;10.384;2023-04-12T01:45:02;11.67;;;5.77;;
18933;SDS011;9599;53.706;10.384;2023-04-12T01:47:30;10.97;;;5.63;;
18933;SDS011;9599;53.706;10.384;2023-04-12T01:50:04;11.37;;;5.77;;
18933;SDS011;9599;53.706;10.384;2023-04-12T01:52:41;9.80;;;5.47;;
18933;SDS011;9599;53.706;10.384;2023-04-12T01:55:12;12.83;;;5.70;;
18933;SDS011;9599;53.706;10.384;2023-04-12T01:57:42;8.90;;;5.80;;
18933;SDS011;9599;53.706;10.384;2023-04-12T02:00:11;12.60;;;5.70;;
18933;SDS011;9599;53.706;10.384;2023-04-12T02:02:41;10.43;;;5.20;;
18933;SDS011;9599;53.706;10.384;2023-04-12T02:05:10;9.60;;;6.33;;
18933;SDS011;9599;53.706;10.384;2023-04-12T02:07:38;12.20;;;5.67;;
18933;SDS011;9599;53.706;10.384;2023-04-12T02:10:08;13.93;;;6.20;;
18933;SDS011;9599;53.706;10.384;2023-04-12T02:12:39;12.60;;;5.93;;
18933;SDS011;9599;53.706;10.384;2023-04-12T02:15:09;9.70;;;5.30;;
18933;SDS011;9599;53.706;10.384;2023-04-12T02:17:38;10.60;;;5.60;;
18933;SDS011;9599;53.706;10.384;2023-04-12T02:20:07;9.47;;;5.00;;
18933;SDS011;9599;53.706;10.384;2023-04-12T02:22:37;12.50;;;5.57;;
18933;SDS011;9599;53.706;10.384;2023-04-12T02:25:05;12.67;;;5.80;;
18933;SDS011;9599;53.706;10.384;2023-04-12T02:27:33;8.03;;;4.93;;
18933;SDS011;9599;53.706;10.384;2023-04-12T02:30:01;10.63;;;5.10;;
18933;SDS011;9599;53.706;10.384;2023-04-12T02:32:34;9.33;;;5.20;;
18933;SDS011;9599;53.706;10.384;2023-04-12T02:35:12;8.90;;;5.00;;
18933;SDS011;9599;53.706;10.384;2023-04-12T02:37:45;9.47;;;4.53;;
18933;SDS011;9599;53.706;10.384;2023-04-12T02:40:13;9.00;;;4.80;;
18933;SDS011;9599;53.706;10.384;2023-04-12T02:42:42;9.17;;;5.07;;
18933;SDS011;9599;53.706;10.384;2023-04-12T02:45:12;8.17;;;4.60;;
18933;SDS011;9599;53.706;10.384;2023-04-12T02:47:42;7.90;;;4.50;;
18933;SDS011;9599;53.706;10.384;2023-04-12T02:50:11;9.43;;;4.50;;
18933;SDS011;9599;53.706;10.384;2023-04-12T02:52:51;7.73;;;4.47;;
18933;SDS011;9599;53.706;10.384;2023-04-12T02:55:19;8.57;;;4.57;;
18933;SDS011;9599;53.706;10.384;2023-04-12T02:57:47;8.07;;;4.10;;
18933;SDS011;9599;53.706;10.384;2023-04-12T03:00:16;11.23;;;4.27;;
18933;SDS011;9599;53.706;10.384;2023-04-12T03:02:48;7.67;;;4.10;;
18933;SDS011;9599;53.706;10.384;2023-04-12T03:05:24;9.00;;;4.63;;
18933;SDS011;9599;53.706;10.384;2023-04-12T03:07:52;9.73;;;4.20;;
18933;SDS011;9599;53.706;10.384;2023-04-12T03:10:28;8.07;;;4.27;;
18933;SDS011;9599;53.706;10.384;2023-04-12T03:13:02;9.67;;;4.47;;
18933;SDS011;9599;53.706;10.384;2023-04-12T03:15:33;8.97;;;4.10;;
18933;SDS011;9599;53.706;10.384;2023-04-12T03:18:03;8.00;;;3.77;;
18933;SDS011;9599;53.706;10.384;2023-04-12T03:20:41;9.63;;;4.37;;
18933;SDS011;9599;53.706;10.384;2023-04-12T03:23:13;6.47;;;3.70;;
18933;SDS011;9599;53.706;10.384;2023-04-12T03:25:44;9.93;;;3.97;;
18933;SDS011;9599;53.706;10.384;2023-04-12T03:28:31;9.33;;;4.00;;
18933;SDS011;9599;53.706;10.384;2023-04-12T03:31:01;7.63;;;3.70;;
18933;SDS011;9599;53.706;10.384;2023-04-12T03:33:42;9.73;;;3.80;;
18933;SDS011;9599;53.706;10.384;2023-04-12T03:36:20;7.93;;;3.87;;
18933;SDS011;9599;53.706;10.384;2023-04-12T03:38:55;6.67;;;3.70;;
18933;SDS011;9599;53.706;10.384;2023-04-12T03:41:24;6.67;;;3.50;;
18933;SDS011;9599;53.706;10.384;2023-04-12T03:43:53;9.33;;;3.80;;
18933;SDS011;9599;53.706;10.384;2023-04-12T03:46:22;10.00;;;3.80;;
18933;SDS011;9599;53.706;10.384;2023-04-12T03:48:56;8.53;;;3.70;;
18933;SDS011;9599;53.706;10.384;2023-04-12T03:51:25;6.80;;;3.53;;
18933;SDS011;9599;53.706;10.384;2023-04-12T03:53:59;7.20;;;3.50;;
18933;SDS011;9599;53.706;10.384;2023-04-12T03:56:35;13.03;;;4.50;;
18933;SDS011;9599;53.706;10.384;2023-04-12T03:59:11;7.23;;;3.43;;
18933;SDS011;9599;53.706;10.384;2023-04-12T04:01:41;8.57;;;3.83;;
18933;SDS011;9599;53.706;10.384;2023-04-12T04:04:11;5.80;;;3.40;;
18933;SDS011;9599;53.706;10.384;2023-04-12T04:06:39;8.03;;;3.80;;
18933;SDS011;9599;53.706;10.384;2023-04-12T04:09:07;6.47;;;3.30;;
18933;SDS011;9599;53.706;10.384;2023-04-12T04:11:37;6.20;;;3.23;;
18933;SDS011;9599;53.706;10.384;2023-04-12T04:14:05;6.73;;;3.73;;
18933;SDS011;9599;53.706;10.384;2023-04-12T04:16:34;6.93;;;3.17;;
18933;SDS011;9599;53.706;10.384;2023-04-12T04:19:04;5.47;;;3.20;;
18933;SDS011;9599;53.706;10.384;2023-04-12T04:21:34;7.73;;;3.70;;
18933;SDS011;9599;53.706;10.384;2023-04-12T04:24:02;5.57;;;3.40;;
18933;SDS011;9599;53.706;10.384;2023-04-12T04:26:36;8.53;;;3.40;;
18933;SDS011;9599;53.706;10.384;2023-04-12T04:29:10;5.17;;;3.60;;
18933;SDS011;9599;53.706;10.384;2023-04-12T04:31:38;8.73;;;3.53;;
18933;SDS011;9599;53.706;10.384;2023-04-12T04:34:07;6.40;;;3.57;;
18933;SDS011;9599;53.706;10.384;2023-04-12T04:36:43;8.10;;;3.60;;
18933;SDS011;9599;53.706;10.384;2023-04-12T04:39:19;7.63;;;3.40;;
18933;SDS011;9599;53.706;10.384;2023-04-12T04:41:48;7.70;;;3.33;;
18933;SDS011;9599;53.706;10.384;2023-04-12T04:44:34;5.40;;;3.13;;
18933;SDS011;9599;53.706;10.384;2023-04-12T04:47:05;6.93;;;3.70;;
18933;SDS011;9599;53.706;10.384;2023-04-12T04:49:34;6.07;;;3.20;;
18933;SDS011;9599;53.706;10.384;2023-04-12T04:52:16;6.87;;;3.63;;
18933;SDS011;9599;53.706;10.384;2023-04-12T04:54:46;9.27;;;3.80;;
18933;SDS011;9599;53.706;10.384;2023-04-12T04:57:14;6.17;;;3.37;;
18933;SDS011;9599;53.706;10.384;2023-04-12T04:59:42;8.73;;;3.97;;
18933;SDS011;9599;53.706;10.384;2023-04-12T05:02:14;7.27;;;3.60;;
18933;SDS011;9599;53.706;10.384;2023-04-12T05:04:43;6.43;;;3.50;;
18933;SDS011;9599;53.706;10.384;2023-04-12T05:07:16;5.30;;;3.37;;
18933;SDS011;9599;53.706;10.384;2023-04-12T05:09:46;4.47;;;3.30;;
18933;SDS011;9599;53.706;10.384;2023-04-12T05:12:17;5.77;;;3.50;;
18933;SDS011;9599;53.706;10.384;2023-04-12T05:14:49;5.50;;;3.00;;
18933;SDS011;9599;53.706;10.384;2023-04-12T05:17:18;4.77;;;3.30;;
18933;SDS011;9599;53.706;10.384;2023-04-12T05:19:46;4.83;;;3.10;;
18933;SDS011;9599;53.706;10.384;2023-04-12T05:22:14;4.23;;;3.03;;
18933;SDS011;9599;53.706;10.384;2023-04-12T05:24:47;3.90;;;2.80;;
18933;SDS011;9599;53.706;10.384;2023-04-12T05:27:15;7.50;;;2.93;;
18933;SDS011;9599;53.706;10.384;2023-04-12T05:29:46;9.43;;;3.30;;
18933;SDS011;9599;53.706;10.384;2023-04-12T05:32:17;6.27;;;3.27;;
18933;SDS011;9599;53.706;10.384;2023-04-12T05:34:45;5.50;;;3.23;;
18933;SDS011;9599;53.706;10.384;2023-04-12T05:37:13;5.73;;;3.07;;
18933;SDS011;9599;53.706;10.384;2023-04-12T05:39:41;3.60;;;2.70;;
18933;SDS011;9599;53.706;10.384;2023-04-12T05:42:11;4.33;;;3.30;;
18933;SDS011;9599;53.706;10.384;2023-04-12T05:44:40;8.97;;;3.43;;
18933;SDS011;9599;53.706;10.384;2023-04-12T05:47:12;6.43;;;3.47;;
18933;SDS011;9599;53.706;10.384;2023-04-12T05:49:41;6.03;;;3.00;;
18933;SDS011;9599;53.706;10.384;2023-04-12T05:52:10;7.77;;;2.90;;
18933;SDS011;9599;53.706;10.384;2023-04-12T05:54:40;6.27;;;2.63;;
18933;SDS011;9599;53.706;10.384;2023-04-12T05:57:14;7.10;;;2.70;;
18933;SDS011;9599;53.706;10.384;2023-04-12T05:59:44;4.27;;;2.47;;
18933;SDS011;9599;53.706;10.384;2023-04-12T06:02:12;6.30;;;2.70;;
18933;SDS011;9599;53.706;10.384;2023-04-12T06:04:40;4.17;;;2.60;;
18933;SDS011;9599;53.706;10.384;2023-04-12T06:07:18;2.87;;;2.47;;
18933;SDS011;9599;53.706;10.384;2023-04-12T06:09:46;4.30;;;2.70;;
18933;SDS011;9599;53.706;10.384;2023-04-12T06:12:16;3.00;;;2.40;;
18933;SDS011;9599;53.706;10.384;2023-04-12T06:14:45;3.40;;;2.30;;
18933;SDS011;9599;53.706;10.384;2023-04-12T06:17:13;3.17;;;2.20;;
18933;SDS011;9599;53.706;10.384;2023-04-12T06:19:42;3.23;;;2.10;;
18933;SDS011;9599;53.706;10.384;2023-04-12T06:22:10;5.17;;;2.30;;
18933;SDS011;9599;53.706;10.384;2023-04-12T06:24:39;4.60;;;2.57;;
18933;SDS011;9599;53.706;10.384;2023-04-12T06:27:09;3.57;;;2.53;;
18933;SDS011;9599;53.706;10.384;2023-04-12T06:29:38;4.53;;;2.20;;
18933;SDS011;9599;53.706;10.384;2023-04-12T06:32:07;6.07;;;2.70;;
18933;SDS011;9599;53.706;10.384;2023-04-12T06:34:35;4.60;;;2.30;;
18933;SDS011;9599;53.706;10.384;2023-04-12T06:37:09;4.03;;;2.20;;
18933;SDS011;9599;53.706;10.384;2023-04-12T06:39:37;3.73;;;2.07;;
18933;SDS011;9599;53.706;10.384;2023-04-12T06:42:04;3.87;;;2.40;;
18933;SDS011;9599;53.706;10.384;2023-04-12T06:44:39;3.10;;;2.10;;
18933;SDS011;9599;53.706;10.384;2023-04-12T06:47:08;4.30;;;2.30;;
18933;SDS011;9599;53.706;10.384;2023-04-12T06:49:36;3.37;;;2.00;;
18933;SDS011;9599;53.706;10.384;2023-04-12T06:52:04;3.97;;;2.30;;
18933;SDS011;9599;53.706;10.384;2023-04-12T06:54:34;3.37;;;2.07;;
18933;SDS011;9599;53.706;10.384;2023-04-12T06:57:02;3.63;;;2.10;;
18933;SDS011;9599;53.706;10.384;2023-04-12T06:59:34;4.73;;;2.20;;
18933;SDS011;9599;53.706;10.384;2023-04-12T07:02:03;3.53;;;2.10;;
18933;SDS011;9599;53.706;10.384;2023-04-12T07:04:32;3.90;;;2.37;;
18933;SDS011;9599;53.706;10.384;2023-04-12T07:07:00;3.93;;;2.10;;
18933;SDS011;9599;53.706;10.384;2023-04-12T07:09:30;3.70;;;2.30;;
18933;SDS011;9599;53.706;10.384;2023-04-12T07:11:58;5.73;;;2.30;;
18933;SDS011;9599;53.706;10.384;2023-04-12T07:14:27;5.83;;;2.10;;
18933;SDS011;9599;53.706;10.384;2023-04-12T07:16:55;4.43;;;2.00;;
18933;SDS011;9599;53.706;10.384;2023-04-12T07:19:24;3.33;;;2.23;;
18933;SDS011;9599;53.706;10.384;2023-04-12T07:21:52;4.13;;;2.20;;
18933;SDS011;9599;53.706;10.384;2023-04-12T07:24:20;3.43;;;1.87;;
18933;SDS011;9599;53.706;10.384;2023-04-12T07:26:48;3.23;;;2.30;;
18933;SDS011;9599;53.706;10.384;2023-04-12T07:29:18;3.00;;;2.03;;
18933;SDS011;9599;53.706;10.384;2023-04-12T07:31:46;4.13;;;2.30;;
18933;SDS011;9599;53.706;10.384;2023-04-12T07:34:16;3.70;;;2.30;;
18933;SDS011;9599;53.706;10.384;2023-04-12T07:36:45;2.63;;;2.07;;
18933;SDS011;9599;53.706;10.384;2023-04-12T07:39:14;3.50;;;2.20;;
18933;SDS011;9599;53.706;10.384;2023-04-12T07:41:42;4.23;;;2.20;;
18933;SDS011;9599;53.706;10.384;2023-04-12T07:44:13;4.70;;;2.20;;
18933;SDS011;9599;53.706;10.384;2023-04-12T07:46:41;4.73;;;2.30;;
18933;SDS011;9599;53.706;10.384;2023-04-12T07:49:09;6.00;;;2.90;;
18933;SDS011;9599;53.706;10.384;2023-04-12T07:51:37;3.33;;;2.17;;
18933;SDS011;9599;53.706;10.384;2023-04-12T07:54:06;3.43;;;2.03;;
18933;SDS011;9599;53.706;10.384;2023-04-12T07:56:34;5.43;;;2.30;;
18933;SDS011;9599;53.706;10.384;2023-04-12T07:59:02;2.97;;;2.10;;
18933;SDS011;9599;53.706;10.384;2023-04-12T08:01:30;3.63;;;2.17;;
18933;SDS011;9599;53.706;10.384;2023-04-12T08:03:58;4.57;;;2.27;;
18933;SDS011;9599;53.706;10.384;2023-04-12T08:06:26;5.73;;;2.17;;
18933;SDS011;9599;53.706;10.384;2023-04-12T08:08:58;3.37;;;2.20;;
18933;SDS011;9599;53.706;10.384;2023-04-12T08:11:27;2.87;;;2.13;;
18933;SDS011;9599;53.706;10.384;2023-04-12T08:13:55;3.83;;;2.27;;
18933;SDS011;9599;53.706;10.384;2023-04-12T08:16:23;4.07;;;1.90;;
18933;SDS011;9599;53.706;10.384;2023-04-12T08:18:51;4.07;;;2.00;;
18933;SDS011;9599;53.706;10.384;2023-04-12T08:21:19;2.73;;;1.90;;
18933;SDS011;9599;53.706;10.384;2023-04-12T08:23:47;3.77;;;2.23;;
18933;SDS011;9599;53.706;10.384;2023-04-12T08:26:16;3.37;;;2.20;;
18933;SDS011;9599;53.706;10.384;2023-04-12T08:28:45;4.23;;;2.10;;
18933;SDS011;9599;53.706;10.384;2023-04-12T08:31:13;5.43;;;2.30;;
18933;SDS011;9599;53.706;10.384;2023-04-12T08:33:42;4.37;;;2.40;;
18933;SDS011;9599;53.706;10.384;2023-04-12T08:36:10;7.80;;;2.87;;
18933;SDS011;9599;53.706;10.384;2023-04-12T08:38:38;3.70;;;2.13;;
18933;SDS011;9599;53.706;10.384;2023-04-12T08:41:11;4.23;;;2.37;;
18933;SDS011;9599;53.706;10.384;2023-04-12T08:43:41;7.27;;;2.60;;
18933;SDS011;9599;53.706;10.384;2023-04-12T08:46:12;3.57;;;2.20;;
18933;SDS011;9599;53.706;10.384;2023-04-12T08:48:42;5.40;;;2.50;;
18933;SDS011;9599;53.706;10.384;2023-04-12T08:51:11;3.93;;;2.37;;
18933;SDS011;9599;53.706;10.384;2023-04-12T08:53:41;3.20;;;2.20;;
18933;SDS011;9599;53.706;10.384;2023-04-12T08:56:09;4.07;;;2.40;;
18933;SDS011;9599;53.706;10.384;2023-04-12T08:58:39;4.63;;;2.43;;
18933;SDS011;9599;53.706;10.384;2023-04-12T09:01:12;3.70;;;2.17;;
18933;SDS011;9599;53.706;10.384;2023-04-12T09:03:41;4.60;;;2.27;;
18933;SDS011;9599;53.706;10.384;2023-04-12T09:06:10;3.83;;;2.07;;
18933;SDS011;9599;53.706;10.384;2023-04-12T09:08:49;3.10;;;2.20;;
18933;SDS011;9599;53.706;10.384;2023-04-12T09:11:22;3.60;;;2.50;;
18933;SDS011;9599;53.706;10.384;2023-04-12T09:13:52;3.43;;;2.20;;
18933;SDS011;9599;53.706;10.384;2023-04-12T09:16:34;5.17;;;2.57;;
18933;SDS011;9599;53.706;10.384;2023-04-12T09:19:03;5.53;;;2.40;;
18933;SDS011;9599;53.706;10.384;2023-04-12T09:21:31;4.93;;;2.17;;
18933;SDS011;9599;53.706;10.384;2023-04-12T09:24:01;3.40;;;2.30;;
18933;SDS011;9599;53.706;10.384;2023-04-12T09:26:31;4.57;;;2.60;;
18933;SDS011;9599;53.706;10.384;2023-04-12T09:28:59;4.47;;;2.30;;
18933;SDS011;9599;53.706;10.384;2023-04-12T09:31:27;3.83;;;2.57;;
18933;SDS011;9599;53.706;10.384;2023-04-12T09:34:04;5.73;;;2.60;;
18933;SDS011;9599;53.706;10.384;2023-04-12T09:36:36;6.30;;;2.20;;
18933;SDS011;9599;53.706;10.384;2023-04-12T09:39:05;5.20;;;2.23;;
18933;SDS011;9599;53.706;10.384;2023-04-12T09:41:33;4.63;;;2.03;;
18933;SDS011;9599;53.706;10.384;2023-04-12T09:44:03;5.80;;;2.40;;
18933;SDS011;9599;53.706;10.384;2023-04-12T09:46:32;3.57;;;2.20;;
18933;SDS011;9599;53.706;10.384;2023-04-12T09:49:01;5.33;;;2.50;;
18933;SDS011;9599;53.706;10.384;2023-04-12T09:51:31;2.77;;;2.30;;
18933;SDS011;9599;53.706;10.384;2023-04-12T09:54:02;3.57;;;2.10;;
18933;SDS011;9599;53.706;10.384;2023-04-12T09:56:33;4.90;;;2.53;;
18933;SDS011;9599;53.706;10.384;2023-04-12T09:59:02;2.40;;;1.90;;
18933;SDS011;9599;53.706;10.384;2023-04-12T10:01:32;5.60;;;2.33;;
18933;SDS011;9599;53.706;10.384;2023-04-12T10:04:03;5.37;;;2.10;;
18933;SDS011;9599;53.706;10.384;2023-04-12T10:06:33;4.97;;;2.40;;
18933;SDS011;9599;53.706;10.384;2023-04-12T10:09:02;4.03;;;2.30;;
18933;SDS011;9599;53.706;10.384;2023-04-12T10:11:30;4.93;;;2.10;;
18933;SDS011;9599;53.706;10.384;2023-04-12T10:14:00;5.03;;;2.10;;
18933;SDS011;9599;53.706;10.384;2023-04-12T10:16:29;5.43;;;2.00;;
18933;SDS011;9599;53.706;10.384;2023-04-12T10:18:57;3.30;;;1.97;;
18933;SDS011;9599;53.706;10.384;2023-04-12T10:21:30;4.03;;;1.93;;
18933;SDS011;9599;53.706;10.384;2023-04-12T10:23:58;4.97;;;2.10;;
18933;SDS011;9599;53.706;10.384;2023-04-12T10:26:26;6.07;;;2.30;;
18933;SDS011;9599;53.706;10.384;2023-04-12T10:29:20;3.97;;;1.60;;
18933;SDS011;9599;53.706;10.384;2023-04-12T10:31:49;5.60;;;1.90;;
18933;SDS011;9599;53.706;10.384;2023-04-12T10:34:22;4.63;;;1.80;;
18933;SDS011;9599;53.706;10.384;2023-04-12T10:36:54;3.50;;;1.73;;
18933;SDS011;9599;53.706;10.384;2023-04-12T10:39:36;4.90;;;2.10;;
18933;SDS011;9599;53.706;10.384;2023-04-12T10:42:13;4.03;;;2.10;;
18933;SDS011;9599;53.706;10.384;2023-04-12T10:44:47;4.93;;;2.10;;
18933;SDS011;9599;53.706;10.384;2023-04-12T10:47:15;3.30;;;1.97;;
18933;SDS011;9599;53.706;10.384;2023-04-12T10:52:51;6.13;;;1.97;;
18933;SDS011;9599;53.706;10.384;2023-04-12T10:55:50;5.20;;;1.97;;
18933;SDS011;9599;53.706;10.384;2023-04-12T11:01:21;2.73;;;1.80;;
18933;SDS011;9599;53.706;10.384;2023-04-12T11:04:08;4.77;;;1.80;;
18933;SDS011;9599;53.706;10.384;2023-04-12T11:06:55;4.40;;;1.87;;
18933;SDS011;9599;53.706;10.384;2023-04-12T11:09:57;5.47;;;2.00;;
18933;SDS011;9599;53.706;10.384;2023-04-12T11:12:32;3.63;;;1.77;;
18933;SDS011;9599;53.706;10.384;2023-04-12T11:15:01;3.83;;;1.80;;
18933;SDS011;9599;53.706;10.384;2023-04-12T11:17:41;3.63;;;1.70;;
18933;SDS011;9599;53.706;10.384;2023-04-12T11:20:09;4.07;;;1.80;;
18933;SDS011;9599;53.706;10.384;2023-04-12T11:22:38;4.00;;;1.70;;
18933;SDS011;9599;53.706;10.384;2023-04-12T11:25:09;3.77;;;1.83;;
18933;SDS011;9599;53.706;10.384;2023-04-12T11:27:47;2.23;;;1.60;;
18933;SDS011;9599;53.706;10.384;2023-04-12T11:30:16;6.23;;;1.87;;
18933;SDS011;9599;53.706;10.384;2023-04-12T11:32:45;4.77;;;1.60;;
18933;SDS011;9599;53.706;10.384;2023-04-12T11:35:14;2.90;;;1.70;;
18933;SDS011;9599;53.706;10.384;2023-04-12T11:37:42;3.37;;;1.80;;
18933;SDS011;9599;53.706;10.384;2023-04-12T11:40:12;4.30;;;2.00;;
18933;SDS011;9599;53.706;10.384;2023-04-12T11:42:41;7.53;;;1.87;;
18933;SDS011;9599;53.706;10.384;2023-04-12T11:45:09;4.27;;;2.07;;
18933;SDS011;9599;53.706;10.384;2023-04-12T11:47:44;3.10;;;1.87;;
18933;SDS011;9599;53.706;10.384;2023-04-12T11:50:12;4.47;;;2.10;;
18933;SDS011;9599;53.706;10.384;2023-04-12T11:52:53;5.17;;;1.80;;
18933;SDS011;9599;53.706;10.384;2023-04-12T11:55:22;3.80;;;2.30;;
18933;SDS011;9599;53.706;10.384;2023-04-12T11:57:52;4.00;;;2.30;;
18933;SDS011;9599;53.706;10.384;2023-04-12T12:00:21;3.93;;;2.30;;
18933;SDS011;9599;53.706;10.384;2023-04-12T12:02:50;4.00;;;2.73;;
18933;SDS011;9599;53.706;10.384;2023-04-12T12:05:33;7.63;;;3.40;;
18933;SDS011;9599;53.706;10.384;2023-04-12T12:08:04;5.37;;;2.93;;
18933;SDS011;9599;53.706;10.384;2023-04-12T12:10:34;5.37;;;3.07;;
18933;SDS011;9599;53.706;10.384;2023-04-12T12:13:21;5.73;;;3.40;;
18933;SDS011;9599;53.706;10.384;2023-04-12T12:15:50;4.70;;;3.13;;
18933;SDS011;9599;53.706;10.384;2023-04-12T12:18:23;6.80;;;3.30;;
18933;SDS011;9599;53.706;10.384;2023-04-12T12:20:52;7.37;;;3.20;;
18933;SDS011;9599;53.706;10.384;2023-04-12T12:23:30;9.07;;;3.93;;
18933;SDS011;9599;53.706;10.384;2023-04-12T12:26:00;6.70;;;3.70;;
18933;SDS011;9599;53.706;10.384;2023-04-12T12:28:47;5.40;;;3.57;;
18933;SDS011;9599;53.706;10.384;2023-04-12T12:31:17;5.37;;;3.40;;
18933;SDS011;9599;53.706;10.384;2023-04-12T12:33:47;8.47;;;3.80;;
18933;SDS011;9599;53.706;10.384;2023-04-12T12:36:17;8.10;;;4.00;;
18933;SDS011;9599;53.706;10.384;2023-04-12T12:38:46;6.93;;;3.70;;
18933;SDS011;9599;53.706;10.384;2023-04-12T12:41:18;10.33;;;4.17;;
18933;SDS011;9599;53.706;10.384;2023-04-12T12:43:47;6.27;;;3.80;;
18933;SDS011;9599;53.706;10.384;2023-04-12T12:46:16;7.67;;;4.00;;
18933;SDS011;9599;53.706;10.384;2023-04-12T12:48:46;6.00;;;3.83;;
18933;SDS011;9599;53.706;10.384;2023-04-12T12:51:15;5.07;;;3.93;;
18933;SDS011;9599;53.706;10.384;2023-04-12T12:53:44;6.07;;;3.57;;
18933;SDS011;9599;53.706;10.384;2023-04-12T12:56:13;7.23;;;3.60;;
18933;SDS011;9599;53.706;10.384;2023-04-12T12:58:44;5.90;;;3.60;;
18933;SDS011;9599;53.706;10.384;2023-04-12T13:01:12;7.07;;;3.40;;
18933;SDS011;9599;53.706;10.384;2023-04-12T13:03:40;4.87;;;3.40;;
18933;SDS011;9599;53.706;10.384;2023-04-12T13:06:09;6.50;;;3.60;;
18933;SDS011;9599;53.706;10.384;2023-04-12T13:08:36;4.60;;;2.87;;
18933;SDS011;9599;53.706;10.384;2023-04-12T13:11:05;4.90;;;3.00;;
18933;SDS011;9599;53.706;10.384;2023-04-12T13:13:33;4.33;;;2.57;;
18933;SDS011;9599;53.706;10.384;2023-04-12T13:16:04;4.43;;;2.30;;
18933;SDS011;9599;53.706;10.384;2023-04-12T13:18:33;4.47;;;2.40;;
18933;SDS011;9599;53.706;10.384;2023-04-12T13:21:01;4.47;;;2.40;;
18933;SDS011;9599;53.706;10.384;2023-04-12T13:23:29;3.90;;;2.50;;
18933;SDS011;9599;53.706;10.384;2023-04-12T13:25:57;3.00;;;2.50;;
18933;SDS011;9599;53.706;10.384;2023-04-12T13:28:25;6.83;;;2.53;;
18933;SDS011;9599;53.706;10.384;2023-04-12T13:30:53;5.30;;;2.90;;
18933;SDS011;9599;53.706;10.384;2023-04-12T13:33:23;5.03;;;2.70;;
18933;SDS011;9599;53.706;10.384;2023-04-12T13:35:51;5.97;;;2.70;;
18933;SDS011;9599;53.706;10.384;2023-04-12T13:38:19;3.97;;;2.43;;
18933;SDS011;9599;53.706;10.384;2023-04-12T13:40:47;5.03;;;2.43;;
18933;SDS011;9599;53.706;10.384;2023-04-12T13:43:15;3.80;;;2.33;;
18933;SDS011;9599;53.706;10.384;2023-04-12T13:45:42;3.20;;;2.30;;
18933;SDS011;9599;53.706;10.384;2023-04-12T13:48:10;3.57;;;2.30;;
18933;SDS011;9599;53.706;10.384;2023-04-12T13:50:40;4.27;;;2.20;;
18933;SDS011;9599;53.706;10.384;2023-04-12T13:53:08;4.13;;;2.53;;
18933;SDS011;9599;53.706;10.384;2023-04-12T13:55:35;4.63;;;2.60;;
18933;SDS011;9599;53.706;10.384;2023-04-12T13:58:03;3.97;;;2.30;;
18933;SDS011;9599;53.706;10.384;2023-04-12T14:00:31;3.80;;;2.07;;
18933;SDS011;9599;53.706;10.384;2023-04-12T14:02:59;3.23;;;1.90;;
18933;SDS011;9599;53.706;10.384;2023-04-12T14:05:28;3.27;;;2.00;;
18933;SDS011;9599;53.706;10.384;2023-04-12T14:07:57;4.47;;;2.13;;
18933;SDS011;9599;53.706;10.384;2023-04-12T14:10:25;2.37;;;2.00;;
18933;SDS011;9599;53.706;10.384;2023-04-12T14:12:53;2.90;;;1.90;;
18933;SDS011;9599;53.706;10.384;2023-04-12T14:15:20;2.73;;;1.97;;
18933;SDS011;9599;53.706;10.384;2023-04-12T14:17:48;4.03;;;1.83;;
18933;SDS011;9599;53.706;10.384;2023-04-12T14:20:16;2.00;;;1.83;;
18933;SDS011;9599;53.706;10.384;2023-04-12T14:22:45;2.67;;;1.63;;
18933;SDS011;9599;53.706;10.384;2023-04-12T14:25:14;3.37;;;1.83;;
18933;SDS011;9599;53.706;10.384;2023-04-12T14:27:43;2.23;;;1.90;;
18933;SDS011;9599;53.706;10.384;2023-04-12T14:30:11;3.27;;;2.00;;
18933;SDS011;9599;53.706;10.384;2023-04-12T14:32:42;2.03;;;1.67;;
18933;SDS011;9599;53.706;10.384;2023-04-12T14:35:12;2.43;;;1.70;;
18933;SDS011;9599;53.706;10.384;2023-04-12T14:37:40;2.83;;;1.87;;
18933;SDS011;9599;53.706;10.384;2023-04-12T14:40:08;3.40;;;1.83;;
18933;SDS011;9599;53.706;10.384;2023-04-12T14:42:37;2.90;;;1.70;;
18933;SDS011;9599;53.706;10.384;2023-04-12T14:45:06;2.17;;;1.77;;
18933;SDS011;9599;53.706;10.384;2023-04-12T14:47:35;2.40;;;1.77;;
18933;SDS011;9599;53.706;10.384;2023-04-12T14:50:03;1.90;;;1.70;;
18933;SDS011;9599;53.706;10.384;2023-04-12T14:52:31;4.60;;;1.93;;
18933;SDS011;9599;53.706;10.384;2023-04-12T14:54:59;2.97;;;1.80;;
18933;SDS011;9599;53.706;10.384;2023-04-12T14:57:27;2.80;;;2.17;;
18933;SDS011;9599;53.706;10.384;2023-04-12T14:59:56;2.63;;;1.80;;
18933;SDS011;9599;53.706;10.384;2023-04-12T15:02:24;2.37;;;1.87;;
18933;SDS011;9599;53.706;10.384;2023-04-12T15:04:52;2.87;;;1.90;;
18933;SDS011;9599;53.706;10.384;2023-04-12T15:07:20;2.60;;;1.90;;
18933;SDS011;9599;53.706;10.384;2023-04-12T15:09:48;5.60;;;2.20;;
18933;SDS011;9599;53.706;10.384;2023-04-12T15:12:16;3.17;;;2.00;;